Time;durP1;ratioP1;P1;durP2;ratioP2;P2;SDS_P1;SDS_P2;PMS_P1;PMS_P2;Temp;Humidity;BMP_temperature;BMP_pressure;BME280_temperature;BME280_humidity;BME280_pressure;Samples;Min_cycle;Max_cycle;Signal;HPM_P1;HPM_P2
2023/01/31 00:03:26;;;;;;;18.57;2.37;;;2.50;99.90;;;;;;7715171;28;20274;-87
2023/01/31 00:07:11;;;;;;;11.67;2.00;;;2.40;99.90;;;;;;7714973;28;20661;-88
2023/01/31 00:10:58;;;;;;;15.97;2.30;;;2.40;99.90;;;;;;7713304;28;20181;-86
2023/01/31 00:14:44;;;;;;;13.33;2.10;;;2.40;99.90;;;;;;7701702;28;20224;-88
2023/01/31 00:18:30;;;;;;;9.80;2.17;;;2.30;99.90;;;;;;7716005;28;20205;-88
2023/01/31 00:22:15;;;;;;;11.97;2.17;;;2.30;99.90;;;;;;7714535;28;20267;-89
2023/01/31 00:26:13;;;;;;;13.87;2.90;;;2.40;99.90;;;;;;7714638;28;20189;-86
2023/01/31 00:29:58;;;;;;;11.47;1.97;;;2.30;99.90;;;;;;7700279;28;20247;-88
2023/01/31 00:33:47;;;;;;;15.90;2.70;;;2.30;99.90;;;;;;7701069;28;20201;-88
2023/01/31 00:37:33;;;;;;;19.43;2.67;;;2.30;99.90;;;;;;7700920;28;20677;-89
2023/01/31 00:41:20;;;;;;;12.60;2.30;;;2.30;99.90;;;;;;7701213;28;20252;-89
2023/01/31 00:45:06;;;;;;;11.00;2.33;;;2.30;99.90;;;;;;7700549;28;20209;-84
2023/01/31 00:48:52;;;;;;;9.67;2.57;;;2.30;99.90;;;;;;7684449;29;20276;-85
2023/01/31 00:52:38;;;;;;;15.63;3.10;;;2.50;99.90;;;;;;7684842;28;20240;-86
2023/01/31 00:56:24;;;;;;;13.67;1.97;;;2.40;99.90;;;;;;7690218;29;20189;-88
2023/01/31 01:00:10;;;;;;;13.53;2.33;;;2.40;99.90;;;;;;7691039;28;20213;-88
2023/01/31 01:03:56;;;;;;;18.20;2.30;;;2.40;99.90;;;;;;7705979;28;20220;-87
2023/01/31 01:07:42;;;;;;;13.27;2.63;;;2.50;99.90;;;;;;7713136;28;20425;-86
2023/01/31 01:11:30;;;;;;;11.77;1.93;;;2.50;99.90;;;;;;7688785;29;20545;-88
2023/01/31 05:06:39;;;;;;;8.60;2.87;;;1.70;99.90;;;;;;8463340;23;20232;-88
2023/01/31 05:10:25;;;;;;;11.93;2.37;;;1.80;99.90;;;;;;7711434;28;20275;-88
2023/01/31 05:14:12;;;;;;;10.77;2.83;;;1.80;99.90;;;;;;7714243;28;20209;-88
2023/01/31 05:18:02;;;;;;;7.47;2.00;;;1.80;99.90;;;;;;7686819;28;20216;-88
2023/01/31 05:21:53;;;;;;;17.87;3.33;;;1.80;99.90;;;;;;7684020;28;20217;-88
2023/01/31 05:25:39;;;;;;;16.93;3.27;;;1.90;99.90;;;;;;7684217;28;20204;-88
2023/01/31 05:29:27;;;;;;;11.97;2.17;;;1.90;99.90;;;;;;7684041;28;20185;-88
2023/01/31 05:33:12;;;;;;;10.77;2.17;;;2.00;99.90;;;;;;7704336;28;20187;-89
2023/01/31 05:36:59;;;;;;;7.43;2.00;;;1.90;99.90;;;;;;7713555;28;20196;-89
2023/01/31 05:40:45;;;;;;;14.07;2.57;;;2.00;99.90;;;;;;7711435;28;20212;-88
2023/01/31 05:44:31;;;;;;;16.37;2.87;;;2.10;99.90;;;;;;7713105;28;20205;-89
2023/01/31 05:48:19;;;;;;;14.07;3.30;;;2.00;99.90;;;;;;7694650;28;20205;-88
2023/01/31 05:52:05;;;;;;;18.37;2.87;;;1.90;99.90;;;;;;7711742;28;20183;-87
2023/01/31 05:55:53;;;;;;;11.13;2.60;;;2.00;99.90;;;;;;7721138;28;20572;-88
2023/01/31 05:59:38;;;;;;;21.33;3.07;;;1.90;99.90;;;;;;7719465;28;20630;-88
2023/01/31 06:03:25;;;;;;;13.63;2.77;;;2.00;99.90;;;;;;7719997;28;20247;-89
2023/01/31 06:07:11;;;;;;;10.53;3.00;;;1.90;99.90;;;;;;7720741;28;20208;-89
2023/01/31 06:11:01;;;;;;;14.53;3.40;;;2.00;99.90;;;;;;7718216;28;20196;-87
2023/01/31 06:19:29;;;;;;;12.20;2.93;;;1.90;99.90;;;;;;7718688;28;20213;-87
2023/01/31 06:23:15;;;;;;;9.63;2.50;;;1.90;99.90;;;;;;7719203;28;20327;-88
2023/01/31 06:27:01;;;;;;;13.63;3.03;;;1.90;99.90;;;;;;7719297;28;20201;-89
2023/01/31 06:30:47;;;;;;;18.53;3.20;;;1.90;99.90;;;;;;7719137;28;20189;-89
2023/01/31 06:34:33;;;;;;;11.43;2.93;;;1.90;99.90;;;;;;7720442;28;20196;-89
2023/01/31 06:38:18;;;;;;;14.63;2.47;;;1.90;99.90;;;;;;7719041;28;20287;-88
2023/01/31 06:42:04;;;;;;;12.30;2.53;;;2.00;99.90;;;;;;7719073;28;20210;-89
2023/01/31 06:45:50;;;;;;;11.43;2.30;;;2.00;99.90;;;;;;7697024;28;20631;-89
2023/01/31 06:49:36;;;;;;;13.63;2.27;;;2.10;99.90;;;;;;7699093;28;20196;-88
2023/01/31 06:53:21;;;;;;;13.57;3.03;;;2.00;99.90;;;;;;7718575;28;20616;-89
2023/01/31 06:57:07;;;;;;;15.73;2.90;;;1.90;99.90;;;;;;7717789;28;20364;-88
2023/01/31 07:00:53;;;;;;;9.87;2.00;;;1.90;99.90;;;;;;7718478;28;20204;-89
2023/01/31 07:04:38;;;;;;;9.77;2.53;;;1.90;99.90;;;;;;7718407;28;20185;-90
2023/01/31 07:08:24;;;;;;;12.70;3.10;;;1.90;99.90;;;;;;7718901;28;20296;-88
2023/01/31 07:12:10;;;;;;;11.90;2.40;;;1.90;99.90;;;;;;7718556;28;20185;-89
2023/01/31 07:15:56;;;;;;;12.83;2.70;;;1.90;99.90;;;;;;7716696;28;20257;-88
2023/01/31 07:19:42;;;;;;;18.50;2.30;;;1.90;99.90;;;;;;7742638;28;20270;-89
2023/01/31 07:23:27;;;;;;;16.40;2.67;;;1.90;99.90;;;;;;7731351;28;20181;-84
2023/01/31 07:27:13;;;;;;;15.17;2.30;;;1.90;99.90;;;;;;7722132;28;20678;-88
2023/01/31 07:31:11;;;;;;;11.93;2.20;;;2.00;99.90;;;;;;7688710;28;20181;-87
2023/01/31 07:34:57;;;;;;;14.63;2.47;;;2.00;99.90;;;;;;7731803;28;20196;-90
2023/01/31 07:38:43;;;;;;;14.33;1.93;;;1.90;99.90;;;;;;7717508;28;20300;-88
2023/01/31 07:42:28;;;;;;;11.73;2.33;;;2.00;99.90;;;;;;7716951;28;20661;-88
2023/01/31 07:46:14;;;;;;;14.80;2.17;;;2.10;99.90;;;;;;7717233;28;20292;-88
2023/01/31 07:50:00;;;;;;;5.33;1.80;;;2.00;99.90;;;;;;7717009;28;20185;-88
2023/01/31 07:53:47;;;;;;;12.23;2.67;;;2.10;99.90;;;;;;7716919;28;20180;-88
2023/01/31 07:57:33;;;;;;;28.37;9.57;;;2.00;99.90;;;;;;7717820;28;20276;-88
2023/01/31 08:05:26;;;;;;;11.03;2.73;;;2.00;99.90;;;;;;7717399;28;20188;-88
2023/01/31 08:09:11;;;;;;;14.27;2.13;;;2.00;99.90;;;;;;7716013;28;20187;-87
2023/01/31 08:12:57;;;;;;;15.63;2.00;;;2.00;99.90;;;;;;7717268;28;20188;-87
2023/01/31 08:16:43;;;;;;;9.00;2.47;;;2.10;99.90;;;;;;7710677;28;20219;-88
2023/01/31 08:20:29;;;;;;;11.87;1.87;;;2.10;99.90;;;;;;7700768;28;20250;-88
2023/01/31 08:24:14;;;;;;;11.27;2.13;;;2.10;99.90;;;;;;7717336;28;20173;-89
2023/01/31 08:28:00;;;;;;;11.03;2.07;;;2.10;99.90;;;;;;7717094;28;20243;-88
2023/01/31 08:31:46;;;;;;;9.90;2.50;;;2.20;99.90;;;;;;7715725;28;20180;-89
2023/01/31 08:35:31;;;;;;;17.70;3.57;;;2.20;99.90;;;;;;7691141;28;20221;-89
2023/01/31 08:39:17;;;;;;;10.90;1.87;;;2.30;99.90;;;;;;7686661;28;20642;-88
2023/01/31 08:43:03;;;;;;;11.83;2.23;;;2.30;99.90;;;;;;7685534;28;20655;-88
2023/01/31 08:46:48;;;;;;;14.37;2.80;;;2.40;99.90;;;;;;7686034;28;20208;-90
2023/01/31 08:50:34;;;;;;;14.10;3.27;;;2.40;99.90;;;;;;7685837;28;20251;-88
2023/01/31 08:54:20;;;;;;;12.73;2.43;;;2.40;99.90;;;;;;7685715;28;20224;-89
2023/01/31 08:58:05;;;;;;;8.27;2.10;;;2.40;99.90;;;;;;7685485;28;20766;-89
2023/01/31 09:01:51;;;;;;;9.47;1.90;;;2.50;99.90;;;;;;7684848;28;20216;-89
2023/01/31 09:05:36;;;;;;;9.10;1.80;;;2.50;99.90;;;;;;7699274;28;20220;-88
2023/01/31 09:09:24;;;;;;;13.13;2.20;;;2.60;99.90;;;;;;7715085;28;20180;-90
2023/01/31 09:13:10;;;;;;;9.10;1.97;;;2.60;99.90;;;;;;7715568;28;20180;-89
2023/01/31 09:16:56;;;;;;;13.13;2.50;;;2.70;99.90;;;;;;7714686;28;20679;-88
2023/01/31 09:20:41;;;;;;;12.13;2.20;;;2.70;99.90;;;;;;7721944;28;20200;-88
2023/01/31 09:24:27;;;;;;;11.83;2.00;;;2.60;99.90;;;;;;7743039;28;20191;-88
2023/01/31 09:28:13;;;;;;;7.70;1.43;;;2.80;99.90;;;;;;7718586;28;20286;-90
2023/01/31 09:31:59;;;;;;;14.90;2.30;;;2.70;99.90;;;;;;7713406;28;20189;-89
2023/01/31 09:35:55;;;;;;;16.07;2.27;;;2.80;99.90;;;;;;7706239;28;20207;-87
2023/01/31 09:39:41;;;;;;;14.20;1.80;;;2.70;99.90;;;;;;7683977;29;20568;-86
2023/01/31 09:43:33;;;;;;;5.93;1.23;;;2.80;99.90;;;;;;7725911;28;20208;-87
2023/01/31 09:47:29;;;;;;;8.53;1.50;;;2.90;99.90;;;;;;7722998;28;20199;-83
2023/01/31 09:51:15;;;;;;;7.53;2.00;;;3.00;99.90;;;;;;7712781;28;20188;-88
2023/01/31 09:55:01;;;;;;;12.27;1.43;;;3.00;99.90;;;;;;7713875;28;20263;-87
2023/01/31 09:58:52;;;;;;;9.47;1.40;;;3.00;99.90;;;;;;7712582;28;20278;-89
2023/01/31 10:03:17;;;;;;;11.73;2.57;;;3.00;99.90;;;;;;7712809;28;20181;-89
2023/01/31 10:07:09;;;;;;;11.27;2.20;;;3.10;99.90;;;;;;7713039;28;20208;-89
2023/01/31 10:11:00;;;;;;;9.97;2.13;;;3.10;99.90;;;;;;7705471;28;20445;-88
2023/01/31 10:14:54;;;;;;;7.73;1.83;;;3.10;99.90;;;;;;7712789;28;20606;-88
2023/01/31 10:18:53;;;;;;;8.20;1.60;;;3.10;99.90;;;;;;7712332;28;20681;-89
2023/01/31 10:22:56;;;;;;;10.97;2.00;;;3.20;99.90;;;;;;7713964;28;20535;-88
2023/01/31 10:26:44;;;;;;;8.57;2.10;;;3.20;99.90;;;;;;7712534;28;20207;-89
2023/01/31 10:30:42;;;;;;;14.60;1.90;;;3.30;99.90;;;;;;7729591;28;20254;-89
2023/01/31 10:34:37;;;;;;;10.03;1.80;;;3.30;99.90;;;;;;7715935;28;20591;-89
2023/01/31 10:39:00;;;;;;;15.07;1.73;;;3.30;99.90;;;;;;7707930;28;20215;-88
2023/01/31 10:42:53;;;;;;;8.77;2.13;;;3.40;99.90;;;;;;7718545;28;20211;-90
2023/01/31 10:46:39;;;;;;;12.97;2.17;;;3.40;99.90;;;;;;7718799;28;20263;-89
2023/01/31 10:50:50;;;;;;;7.87;1.83;;;3.40;99.90;;;;;;7717919;28;20248;-89
2023/01/31 10:54:57;;;;;;;9.30;2.27;;;3.40;99.90;;;;;;7712573;28;20177;-89
2023/01/31 10:58:42;;;;;;;8.90;2.10;;;3.40;99.90;;;;;;7718182;28;20207;-88
2023/01/31 11:02:29;;;;;;;7.30;1.80;;;3.40;99.90;;;;;;7716978;28;20181;-89
2023/01/31 11:06:15;;;;;;;5.73;1.53;;;3.30;99.90;;;;;;7723904;28;20220;-89
2023/01/31 11:10:23;;;;;;;11.07;1.77;;;3.40;99.90;;;;;;7716722;28;20197;-89
2023/01/31 11:14:17;;;;;;;5.53;1.30;;;3.30;99.90;;;;;;7716656;28;20195;-88
2023/01/31 11:18:06;;;;;;;6.93;2.70;;;3.30;99.90;;;;;;7716441;28;20354;-88
2023/01/31 11:21:53;;;;;;;8.90;2.00;;;3.50;99.90;;;;;;7717642;28;20287;-86
2023/01/31 11:25:45;;;;;;;8.03;2.27;;;3.40;99.90;;;;;;7710188;28;20216;-87
2023/01/31 11:29:48;;;;;;;4.70;1.93;;;3.40;99.90;;;;;;7713855;28;20206;-88
2023/01/31 11:33:43;;;;;;;7.73;2.00;;;3.40;99.90;;;;;;7726579;28;20778;-87
2023/01/31 12:04:49;;;;;;;10.37;2.40;;;3.60;99.90;;;;;;7687048;28;20294;-84
2023/01/31 12:08:52;;;;;;;13.47;2.80;;;3.70;99.90;;;;;;7704911;28;20207;-91
2023/01/31 12:12:42;;;;;;;9.30;2.30;;;3.60;99.90;;;;;;7709514;28;20650;-91
2023/01/31 12:16:29;;;;;;;14.87;3.50;;;3.80;99.90;;;;;;7672228;28;20651;-90
2023/01/31 12:20:25;;;;;;;5.77;1.87;;;3.90;99.90;;;;;;7676500;29;20630;-90
2023/01/31 12:24:29;;;;;;;9.93;2.90;;;4.00;99.90;;;;;;7657211;29;20184;-83
2023/01/31 12:28:35;;;;;;;10.13;2.43;;;4.00;99.90;;;;;;7656065;29;20201;-90
2023/01/31 12:32:42;;;;;;;6.10;2.37;;;4.10;99.90;;;;;;7675275;28;20558;-90
2023/01/31 12:36:46;;;;;;;13.90;2.97;;;4.10;99.90;;;;;;7655637;29;20701;-90
2023/01/31 12:40:37;;;;;;;9.60;2.50;;;3.90;99.90;;;;;;7677955;28;20206;-90
2023/01/31 12:44:42;;;;;;;7.73;2.67;;;4.00;99.90;;;;;;7679745;28;20196;-90
2023/01/31 12:48:56;;;;;;;9.13;3.63;;;4.10;99.90;;;;;;7678359;28;20639;-91
2023/01/31 12:53:12;;;;;;;9.47;2.43;;;4.10;99.90;;;;;;7670134;28;20705;-90
2023/01/31 12:57:04;;;;;;;13.03;4.93;;;4.00;99.90;;;;;;7681472;28;20204;-90
2023/01/31 13:01:13;;;;;;;7.37;2.77;;;4.00;99.90;;;;;;7671434;28;20671;-91
2023/01/31 13:05:23;;;;;;;12.30;3.00;;;4.00;99.90;;;;;;7713298;28;20250;-91
2023/01/31 13:09:20;;;;;;;10.70;3.60;;;3.90;99.90;;;;;;7703341;28;20237;-91
2023/01/31 13:13:14;;;;;;;8.07;3.10;;;3.80;99.90;;;;;;7684476;28;20185;-91
2023/01/31 13:17:04;;;;;;;8.97;3.00;;;3.80;99.90;;;;;;7679090;28;20640;-90
2023/01/31 13:21:13;;;;;;;14.00;3.57;;;3.80;99.90;;;;;;7683708;28;20290;-90
2023/01/31 13:25:14;;;;;;;9.00;3.20;;;3.80;99.90;;;;;;7686299;28;20213;-90
2023/01/31 13:29:02;;;;;;;11.57;3.40;;;3.80;99.90;;;;;;7667146;28;20273;-91
2023/01/31 13:32:51;;;;;;;9.73;3.07;;;3.80;99.90;;;;;;7667312;29;20192;-91
2023/01/31 13:36:42;;;;;;;8.43;3.33;;;3.70;99.90;;;;;;7663786;29;20181;-90
2023/01/31 13:40:34;;;;;;;8.03;3.43;;;3.70;99.90;;;;;;7678262;29;20300;-90
2023/01/31 13:44:20;;;;;;;12.97;3.47;;;3.60;99.90;;;;;;7665124;29;20289;-90
2023/01/31 13:48:15;;;;;;;11.87;3.37;;;3.50;99.90;;;;;;7682922;28;20761;-91
2023/01/31 13:52:10;;;;;;;14.63;3.60;;;3.40;99.90;;;;;;7682746;28;20548;-90
2023/01/31 13:55:56;;;;;;;12.83;3.57;;;3.30;99.90;;;;;;7681280;28;20185;-90
2023/01/31 13:59:55;;;;;;;12.63;3.73;;;3.30;99.90;;;;;;7672165;28;20209;-91
2023/01/31 14:04:13;;;;;;;12.30;4.00;;;3.40;99.90;;;;;;7693972;28;20201;-90
2023/01/31 14:08:36;;;;;;;11.07;3.80;;;3.40;99.90;;;;;;7666661;29;20289;-90
2023/01/31 14:12:22;;;;;;;11.37;3.60;;;3.30;99.90;;;;;;7683904;29;20182;-90
2023/01/31 14:16:33;;;;;;;14.40;4.40;;;3.30;99.90;;;;;;7690210;28;20193;-90
2023/01/31 14:20:30;;;;;;;12.97;4.70;;;3.20;99.90;;;;;;7703353;28;20209;-91
2023/01/31 14:24:40;;;;;;;10.47;3.53;;;3.20;99.90;;;;;;7673414;29;20189;-91
2023/01/31 14:28:26;;;;;;;10.10;3.70;;;3.20;99.90;;;;;;7658829;29;20249;-90
2023/01/31 14:32:25;;;;;;;10.83;4.07;;;3.20;99.90;;;;;;7668935;29;20193;-90
2023/01/31 14:36:39;;;;;;;8.67;3.77;;;3.10;99.90;;;;;;7668541;29;20189;-90
2023/01/31 14:40:55;;;;;;;12.63;4.20;;;3.20;99.90;;;;;;7682617;28;20207;-91
2023/01/31 14:45:02;;;;;;;9.10;4.17;;;3.20;99.90;;;;;;7697784;28;20189;-92
2023/01/31 14:49:06;;;;;;;10.70;4.23;;;3.20;99.90;;;;;;7716158;28;20296;-91
2023/01/31 14:53:16;;;;;;;9.30;3.40;;;3.40;99.90;;;;;;7695230;29;20193;-92
2023/01/31 14:57:30;;;;;;;10.33;4.13;;;3.50;99.90;;;;;;7707689;28;20210;-91
2023/01/31 15:01:20;;;;;;;12.73;4.90;;;3.50;99.90;;;;;;7694920;28;20575;-91
2023/01/31 15:05:13;;;;;;;8.70;3.73;;;3.60;99.90;;;;;;7732423;28;20193;-92
2023/01/31 15:09:14;;;;;;;11.93;4.23;;;3.70;99.90;;;;;;7703402;28;20200;-92
2023/01/31 15:17:53;;;;;;;8.83;3.60;;;3.60;99.90;;;;;;7690962;28;20296;-91
2023/01/31 15:22:02;;;;;;;8.17;3.73;;;3.60;99.90;;;;;;7689347;28;20207;-92
2023/01/31 15:25:59;;;;;;;6.03;3.13;;;3.50;99.90;;;;;;7689452;28;20181;-92
2023/01/31 15:30:04;;;;;;;9.47;3.87;;;3.50;99.90;;;;;;7689344;28;20320;-92
2023/01/31 15:34:19;;;;;;;10.17;3.50;;;3.40;99.90;;;;;;7689653;28;20257;-91
2023/01/31 15:38:23;;;;;;;7.63;3.07;;;3.40;99.90;;;;;;7688223;28;20320;-91
2023/01/31 15:42:29;;;;;;;9.03;3.53;;;3.40;99.90;;;;;;7710351;28;20216;-91
2023/01/31 15:46:30;;;;;;;8.90;3.27;;;3.40;99.90;;;;;;7713215;28;20172;-90
2023/01/31 15:50:51;;;;;;;10.50;4.37;;;3.30;99.90;;;;;;7696449;28;20177;-91
2023/01/31 15:59:13;;;;;;;6.57;3.23;;;3.30;99.90;;;;;;7719339;28;20216;-91
2023/01/31 16:03:01;;;;;;;6.93;3.20;;;3.30;99.90;;;;;;7680574;28;20253;-91
2023/01/31 16:06:47;;;;;;;7.47;3.53;;;3.30;99.90;;;;;;7658099;29;20201;-92
2023/01/31 16:11:29;;;;;;;7.00;3.67;;;3.30;99.90;;;;;;7664915;28;20196;-91
2023/01/31 16:16:06;;;;;;;5.97;3.20;;;3.30;99.90;;;;;;7553597;29;20263;-91
2023/01/31 16:19:51;;;;;;;7.37;4.07;;;3.30;99.90;;;;;;7559759;29;20230;-91
2023/01/31 16:23:37;;;;;;;7.03;3.70;;;3.30;99.90;;;;;;7545603;29;20200;-91
2023/01/31 16:27:24;;;;;;;7.80;3.67;;;3.30;99.90;;;;;;7539426;29;20207;-91
2023/01/31 16:31:13;;;;;;;4.93;3.50;;;3.20;99.90;;;;;;7544489;29;20200;-90
2023/01/31 16:35:03;;;;;;;6.88;4.03;;;3.30;99.90;;;;;;7571048;29;20454;-93
2023/01/31 16:39:04;;;;;;;6.50;3.50;;;3.20;99.90;;;;;;7583155;29;20224;-92
2023/01/31 16:43:17;;;;;;;7.80;3.60;;;3.20;99.90;;;;;;7561590;29;20698;-91
2023/01/31 16:47:03;;;;;;;9.33;5.33;;;3.20;99.90;;;;;;7551126;29;20271;-92
2023/01/31 16:50:51;;;;;;;7.40;4.13;;;3.20;99.90;;;;;;7593663;29;20197;-91
2023/01/31 16:54:59;;;;;;;8.37;3.67;;;3.20;99.90;;;;;;7671521;29;20185;-92
2023/01/31 16:59:02;;;;;;;11.00;4.10;;;3.30;99.90;;;;;;7686263;28;20300;-91
2023/01/31 17:02:49;;;;;;;9.03;4.03;;;3.20;99.90;;;;;;7672844;28;20269;-91
2023/01/31 17:06:35;;;;;;;7.97;3.73;;;3.30;99.90;;;;;;7693842;28;20280;-92
2023/01/31 17:10:25;;;;;;;5.23;3.37;;;3.20;99.90;;;;;;7702155;28;20193;-92
2023/01/31 17:14:12;;;;;;;9.83;3.40;;;3.20;99.90;;;;;;7671651;28;20190;-91
2023/01/31 17:17:57;;;;;;;6.90;3.40;;;3.20;99.90;;;;;;7657599;29;20301;-91
2023/01/31 17:21:43;;;;;;;6.13;4.03;;;3.30;99.90;;;;;;7667750;29;20417;-92
2023/01/31 17:25:35;;;;;;;12.03;5.07;;;3.30;99.90;;;;;;7683576;29;20599;-92
2023/01/31 17:29:22;;;;;;;8.33;3.63;;;3.40;99.90;;;;;;7683388;29;20253;-91
2023/01/31 17:33:16;;;;;;;6.03;4.00;;;3.20;99.90;;;;;;7683708;28;20272;-92
2023/01/31 18:00:28;;;;;;;9.93;4.70;;;3.30;99.90;;;;;;7692324;28;20609;-90
2023/01/31 18:04:20;;;;;;;8.73;3.37;;;3.40;99.90;;;;;;7683302;28;20233;-91
2023/01/31 18:08:07;;;;;;;7.37;3.87;;;3.40;99.90;;;;;;7703345;28;20193;-90
2023/01/31 18:12:06;;;;;;;5.47;3.30;;;3.40;99.90;;;;;;7684253;29;20189;-90
2023/01/31 18:16:04;;;;;;;8.47;3.20;;;3.40;99.90;;;;;;7672505;29;20216;-91
2023/01/31 18:19:50;;;;;;;5.37;3.80;;;3.40;99.90;;;;;;7691004;28;20745;-90
2023/01/31 18:23:58;;;;;;;5.50;3.17;;;3.40;99.90;;;;;;7676875;29;20597;-91
2023/01/31 18:27:44;;;;;;;4.67;3.10;;;3.50;99.90;;;;;;7688697;29;20209;-91
2023/01/31 18:31:30;;;;;;;4.90;2.73;;;3.50;99.90;;;;;;7702034;28;20189;-92
2023/01/31 18:35:15;;;;;;;5.43;2.93;;;3.50;99.90;;;;;;7692423;28;20220;-92
2023/01/31 18:39:03;;;;;;;6.63;3.70;;;3.60;99.90;;;;;;7701159;28;20234;-92
2023/01/31 18:42:49;;;;;;;5.40;3.20;;;3.60;99.90;;;;;;7694579;28;20201;-92
2023/01/31 18:46:39;;;;;;;4.83;3.10;;;3.70;99.90;;;;;;7692364;28;20189;-92
2023/01/31 18:50:25;;;;;;;5.17;3.20;;;3.70;99.90;;;;;;7683265;28;20182;-92
2023/01/31 18:54:10;;;;;;;7.37;3.57;;;3.70;99.90;;;;;;7664194;28;20262;-92
2023/01/31 18:57:56;;;;;;;4.30;2.70;;;3.80;99.90;;;;;;7667724;28;20241;-92
2023/01/31 19:01:42;;;;;;;5.20;3.03;;;3.80;99.90;;;;;;7664095;29;20289;-91
2023/01/31 19:05:27;;;;;;;4.67;3.07;;;3.80;99.90;;;;;;7685400;28;20184;-91
2023/01/31 19:09:13;;;;;;;5.37;3.33;;;3.90;99.90;;;;;;7692547;28;20635;-91
2023/01/31 19:12:59;;;;;;;5.33;2.90;;;3.80;99.90;;;;;;7692565;28;20193;-90
2023/01/31 19:16:45;;;;;;;5.17;3.13;;;3.80;99.90;;;;;;7696573;28;20209;-89
2023/01/31 19:20:30;;;;;;;7.63;3.10;;;3.90;99.90;;;;;;7689287;28;20197;-90
2023/01/31 19:24:16;;;;;;;3.80;2.77;;;3.90;99.90;;;;;;7687845;28;20218;-90
2023/01/31 19:28:02;;;;;;;6.27;3.00;;;3.90;99.90;;;;;;7688664;28;20218;-90
2023/01/31 19:31:48;;;;;;;6.20;3.07;;;3.90;99.90;;;;;;7690282;28;20212;-89
2023/01/31 19:35:49;;;;;;;4.03;2.63;;;3.90;99.90;;;;;;7690112;28;20181;-91
2023/01/31 19:39:35;;;;;;;4.57;2.87;;;3.90;99.90;;;;;;7689842;28;20213;-90
2023/01/31 19:43:21;;;;;;;16.53;2.93;;;3.90;99.90;;;;;;7674916;29;20185;-91
2023/01/31 19:47:06;;;;;;;6.83;2.80;;;3.90;99.90;;;;;;7690393;28;20215;-91
2023/01/31 19:50:52;;;;;;;6.33;2.80;;;3.90;99.90;;;;;;7700366;28;20199;-90
2023/01/31 19:54:40;;;;;;;5.77;2.70;;;3.80;99.90;;;;;;7677667;28;20807;-90
2023/01/31 19:58:30;;;;;;;3.50;2.40;;;3.90;99.90;;;;;;7716946;28;20216;-90
2023/01/31 20:02:15;;;;;;;4.63;2.63;;;3.90;99.90;;;;;;7717083;28;20204;-91
2023/01/31 20:06:19;;;;;;;5.67;3.07;;;4.00;99.90;;;;;;7700634;28;20743;-91
2023/01/31 20:10:28;;;;;;;4.53;2.73;;;4.00;99.90;;;;;;7679989;28;20253;-91
2023/01/31 20:14:13;;;;;;;3.07;2.43;;;4.00;99.90;;;;;;7683898;29;20723;-91
2023/01/31 20:18:14;;;;;;;4.10;2.60;;;4.00;99.90;;;;;;7670719;29;20553;-90
2023/01/31 20:22:00;;;;;;;5.07;2.60;;;4.00;99.90;;;;;;7668816;29;20209;-92
2023/01/31 20:25:51;;;;;;;3.23;2.00;;;3.90;99.90;;;;;;7681720;29;20178;-91
2023/01/31 20:29:36;;;;;;;5.13;2.53;;;4.00;99.90;;;;;;7690636;28;20872;-84
2023/01/31 20:33:22;;;;;;;4.73;2.20;;;4.00;99.90;;;;;;7691601;28;20189;-92
2023/01/31 20:37:08;;;;;;;4.10;2.63;;;4.00;99.90;;;;;;7689656;28;20259;-92
2023/01/31 20:40:54;;;;;;;2.97;2.23;;;4.00;99.90;;;;;;7686536;29;20217;-90
2023/01/31 20:44:40;;;;;;;3.37;2.53;;;3.90;99.90;;;;;;7724222;28;20223;-92
2023/01/31 20:48:25;;;;;;;3.43;2.40;;;3.80;99.90;;;;;;7723796;28;20271;-92
2023/01/31 20:52:11;;;;;;;4.20;2.70;;;3.80;99.90;;;;;;7745088;28;20264;-90
2023/01/31 20:56:02;;;;;;;4.20;2.70;;;3.70;99.90;;;;;;7734350;28;20209;-89
2023/01/31 20:59:48;;;;;;;5.10;2.60;;;3.70;99.90;;;;;;7717848;28;20253;-91
2023/01/31 21:03:37;;;;;;;4.70;2.50;;;3.70;99.90;;;;;;7709648;28;20249;-90
2023/01/31 21:07:24;;;;;;;4.50;2.50;;;3.80;99.90;;;;;;7706919;28;20208;-90
2023/01/31 21:11:13;;;;;;;6.33;2.60;;;3.70;99.90;;;;;;7663953;29;20193;-91
2023/01/31 21:14:59;;;;;;;3.40;2.50;;;3.80;99.90;;;;;;7667383;29;20194;-92
2023/01/31 21:18:45;;;;;;;3.60;2.43;;;3.70;99.90;;;;;;7673017;28;20690;-92
2023/01/31 21:22:32;;;;;;;3.97;2.70;;;3.90;99.90;;;;;;7699730;28;20212;-91
2023/01/31 21:26:19;;;;;;;3.97;2.63;;;3.90;99.90;;;;;;7715600;28;20189;-90
2023/01/31 21:30:05;;;;;;;9.97;4.77;;;4.00;99.90;;;;;;7706976;28;20209;-92
2023/01/31 21:33:51;;;;;;;4.53;2.90;;;3.80;99.90;;;;;;7678619;29;20185;-92
2023/01/31 21:37:37;;;;;;;3.97;2.60;;;3.80;99.90;;;;;;7695823;29;20347;-91
2023/01/31 21:45:48;;;;;;;4.83;2.70;;;3.60;99.90;;;;;;7689192;29;20189;-92
2023/01/31 21:49:32;;;;;;;3.63;2.63;;;3.60;99.90;;;;;;7697625;28;20225;-91
2023/01/31 21:53:18;;;;;;;4.90;3.00;;;3.50;99.90;;;;;;7687011;28;20194;-91
2023/01/31 21:57:36;;;;;;;5.63;3.20;;;3.50;99.90;;;;;;7701129;28;20224;-92
2023/01/31 22:01:28;;;;;;;4.60;3.00;;;3.50;99.90;;;;;;7709463;28;20237;-92
2023/01/31 22:05:14;;;;;;;4.57;2.97;;;3.50;99.90;;;;;;7696893;29;20174;-91
2023/01/31 22:09:00;;;;;;;6.13;3.47;;;3.50;99.90;;;;;;7685714;29;20197;-91
2023/01/31 22:12:46;;;;;;;5.40;3.63;;;3.60;99.90;;;;;;7701321;28;20295;-90
2023/01/31 22:16:32;;;;;;;7.83;3.53;;;3.50;99.90;;;;;;7702181;28;20186;-92
2023/01/31 22:20:18;;;;;;;6.27;3.40;;;3.60;99.90;;;;;;7687461;29;20217;-92
2023/01/31 22:24:05;;;;;;;8.47;3.60;;;3.60;99.90;;;;;;7701410;28;20199;-89
2023/01/31 22:27:51;;;;;;;5.63;2.90;;;3.70;99.90;;;;;;7719131;28;20208;-92
2023/01/31 22:31:37;;;;;;;5.97;3.10;;;3.70;99.90;;;;;;7723321;28;20275;-91
2023/01/31 22:35:25;;;;;;;9.00;3.60;;;3.80;99.90;;;;;;7739064;28;20176;-92
2023/01/31 22:39:12;;;;;;;7.97;3.30;;;3.80;99.90;;;;;;7741325;28;20215;-90
2023/01/31 22:42:58;;;;;;;6.40;3.67;;;3.90;99.90;;;;;;7740597;28;20302;-92
2023/01/31 22:46:44;;;;;;;5.97;3.50;;;3.80;99.90;;;;;;7739678;28;20276;-92
2023/01/31 22:50:29;;;;;;;10.93;4.47;;;3.90;99.90;;;;;;7743606;28;20184;-93
2023/01/31 22:54:17;;;;;;;5.77;3.40;;;3.90;99.90;;;;;;7744062;28;20199;-91
2023/01/31 22:58:03;;;;;;;13.00;4.17;;;4.00;99.90;;;;;;7729026;28;20309;-91
2023/01/31 23:01:48;;;;;;;11.43;3.90;;;4.00;99.90;;;;;;7728524;28;20212;-93
2023/01/31 23:05:39;;;;;;;9.20;3.47;;;4.00;99.90;;;;;;7716018;28;20256;-93
2023/01/31 23:09:24;;;;;;;8.97;3.57;;;4.00;99.90;;;;;;7735605;28;20275;-91
2023/01/31 23:13:11;;;;;;;9.73;3.53;;;4.00;99.90;;;;;;7744579;28;20199;-92
2023/01/31 23:40:28;;;;;;;8.50;4.03;;;4.00;99.90;;;;;;7717175;22;20713;-83
2023/01/31 23:44:14;;;;;;;9.10;4.47;;;4.00;99.90;;;;;;7716033;28;20778;-83
2023/01/31 23:47:59;;;;;;;13.90;5.00;;;4.00;99.90;;;;;;7690837;28;20214;-86
2023/01/31 23:51:45;;;;;;;5.83;4.10;;;4.00;99.90;;;;;;7656685;29;20249;-85
2023/01/31 23:55:31;;;;;;;9.53;4.20;;;4.00;99.90;;;;;;7671961;29;20201;-85
2023/01/31 23:59:17;;;;;;;11.43;4.33;;;3.90;99.90;;;;;;7685739;28;20256;-85
